Time;durP1;ratioP1;P1;durP2;ratioP2;P2;SDS_P1;SDS_P2;PMS_P1;PMS_P2;Temp;Humidity;BMP_temperature;BMP_pressure;BME280_temperature;BME280_humidity;BME280_pressure;Samples;Min_cycle;Max_cycle;Signal;HPM_P1;HPM_P2
2023/12/17 00:01:23;;;;;;;11.32;6.32;;;6.00;99.90;;;;;;5050495;28;20434;-64
2023/12/17 00:03:49;;;;;;;12.40;7.43;;;6.10;99.90;;;;;;5050756;28;20078;-64
2023/12/17 00:06:15;;;;;;;14.00;6.68;;;6.10;99.90;;;;;;5051155;28;20077;-64
2023/12/17 00:08:41;;;;;;;9.00;6.65;;;6.10;99.90;;;;;;5051196;28;20206;-65
2023/12/17 00:11:07;;;;;;;9.52;6.80;;;6.10;99.90;;;;;;5050983;28;20104;-65
2023/12/17 00:13:35;;;;;;;12.70;6.65;;;6.20;99.90;;;;;;5051147;28;20412;-64
2023/12/17 00:16:00;;;;;;;10.32;7.18;;;6.10;99.90;;;;;;5054203;28;20484;-63
2023/12/17 00:18:26;;;;;;;10.68;6.90;;;6.20;99.90;;;;;;5054668;28;20033;-63
2023/12/17 00:20:51;;;;;;;12.65;7.13;;;6.20;99.90;;;;;;5054558;28;20108;-64
2023/12/17 00:23:17;;;;;;;12.07;6.72;;;6.20;99.90;;;;;;5054864;28;20029;-64
2023/12/17 00:25:43;;;;;;;9.05;6.15;;;6.20;99.90;;;;;;5054790;28;20032;-63
2023/12/17 00:28:08;;;;;;;10.98;7.00;;;6.30;99.90;;;;;;5054360;28;20098;-65
2023/12/17 00:30:34;;;;;;;10.05;6.95;;;6.30;99.90;;;;;;5054713;28;20025;-63
2023/12/17 00:32:59;;;;;;;10.55;6.68;;;6.30;99.90;;;;;;5054504;28;20025;-63
2023/12/17 00:35:25;;;;;;;9.95;6.20;;;6.30;99.90;;;;;;5054313;28;20055;-63
2023/12/17 00:37:50;;;;;;;8.65;6.40;;;6.20;99.80;;;;;;5054517;28;20104;-64
2023/12/17 00:40:16;;;;;;;11.00;6.65;;;6.20;99.70;;;;;;5054475;28;20032;-63
2023/12/17 00:42:42;;;;;;;10.07;6.82;;;6.30;99.60;;;;;;5054062;28;20461;-64
2023/12/17 00:45:08;;;;;;;13.43;6.82;;;6.30;99.60;;;;;;5053608;28;20049;-63
2023/12/17 00:47:33;;;;;;;10.68;7.13;;;6.30;99.50;;;;;;5054341;28;20051;-64
2023/12/17 00:49:59;;;;;;;10.80;6.93;;;6.30;99.40;;;;;;5053960;28;20025;-64
2023/12/17 00:52:24;;;;;;;10.23;6.20;;;6.30;99.40;;;;;;5054590;28;20025;-64
2023/12/17 00:54:51;;;;;;;11.35;6.70;;;6.30;99.30;;;;;;5054008;28;20052;-66
2023/12/17 00:57:18;;;;;;;10.38;6.70;;;6.30;99.30;;;;;;5054104;28;20373;-64
2023/12/17 00:59:43;;;;;;;10.30;6.97;;;6.30;99.20;;;;;;5054197;28;20131;-64
2023/12/17 01:02:09;;;;;;;9.60;6.35;;;6.30;99.20;;;;;;5053716;28;20518;-64
2023/12/17 01:04:35;;;;;;;10.20;6.82;;;6.30;99.20;;;;;;5053906;28;20021;-64
2023/12/17 01:07:00;;;;;;;10.18;7.07;;;6.30;99.20;;;;;;5053514;28;20374;-64
2023/12/17 01:09:26;;;;;;;11.35;7.82;;;6.30;99.20;;;;;;5053544;28;20040;-63
2023/12/17 01:11:51;;;;;;;10.45;6.93;;;6.30;99.20;;;;;;5053088;28;20060;-64
2023/12/17 01:14:17;;;;;;;11.55;6.75;;;6.30;99.20;;;;;;5053838;28;20055;-64
2023/12/17 01:16:43;;;;;;;11.75;6.80;;;6.30;99.30;;;;;;5053453;28;20052;-64
2023/12/17 01:19:08;;;;;;;12.45;7.70;;;6.30;99.30;;;;;;5053030;28;20104;-64
2023/12/17 01:21:34;;;;;;;10.85;6.53;;;6.30;99.40;;;;;;5053715;28;20100;-64
2023/12/17 01:24:00;;;;;;;10.63;7.50;;;6.30;99.40;;;;;;5052954;28;20021;-65
2023/12/17 01:26:29;;;;;;;11.82;7.07;;;6.30;99.50;;;;;;5053282;28;20037;-65
2023/12/17 01:28:55;;;;;;;14.82;8.13;;;6.30;99.50;;;;;;5053060;28;20025;-64
2023/12/17 01:31:20;;;;;;;12.02;6.88;;;6.30;99.50;;;;;;5053709;28;20025;-64
2023/12/17 01:33:46;;;;;;;10.07;7.18;;;6.30;99.60;;;;;;5053299;28;20100;-65
2023/12/17 01:36:12;;;;;;;12.23;7.78;;;6.30;99.60;;;;;;5052981;28;20040;-63
2023/12/17 01:38:38;;;;;;;10.32;6.68;;;6.30;99.70;;;;;;5053486;28;20578;-64
2023/12/17 01:41:04;;;;;;;12.95;8.35;;;6.30;99.70;;;;;;5053008;28;20025;-64
2023/12/17 01:43:29;;;;;;;11.68;7.50;;;6.20;99.70;;;;;;5053430;28;20095;-64
2023/12/17 01:45:56;;;;;;;13.32;7.75;;;6.20;99.80;;;;;;5065857;28;20074;-64
2023/12/17 01:48:22;;;;;;;10.57;7.63;;;6.30;99.90;;;;;;5073171;28;20068;-64
2023/12/17 01:50:49;;;;;;;12.07;8.07;;;6.30;99.90;;;;;;5073181;28;20032;-64
2023/12/17 01:53:16;;;;;;;11.02;7.93;;;6.30;99.90;;;;;;5072878;28;20033;-63
2023/12/17 01:55:42;;;;;;;11.98;7.80;;;6.30;99.90;;;;;;5073248;28;20116;-65
2023/12/17 01:58:09;;;;;;;12.40;8.10;;;6.30;99.90;;;;;;5072481;28;20029;-64
2023/12/17 02:00:36;;;;;;;13.48;8.20;;;6.30;99.90;;;;;;5073422;28;20052;-64
2023/12/17 02:03:03;;;;;;;11.93;7.93;;;6.30;99.90;;;;;;5063007;28;20096;-64
2023/12/17 02:05:31;;;;;;;15.40;8.00;;;6.20;99.90;;;;;;5052927;28;20041;-64
2023/12/17 02:07:57;;;;;;;11.43;7.65;;;6.20;99.90;;;;;;5052435;28;20078;-64
2023/12/17 02:10:23;;;;;;;12.32;8.00;;;6.30;99.90;;;;;;5052710;28;20112;-64
2023/12/17 02:12:49;;;;;;;13.30;8.18;;;6.20;99.80;;;;;;5052788;28;20028;-64
2023/12/17 02:15:14;;;;;;;14.82;8.18;;;6.20;99.80;;;;;;5052259;28;20029;-64
2023/12/17 02:17:40;;;;;;;14.02;7.75;;;6.30;99.80;;;;;;5052674;28;20447;-64
2023/12/17 02:20:06;;;;;;;11.20;6.93;;;6.30;99.70;;;;;;5051830;28;20025;-64
2023/12/17 02:22:33;;;;;;;13.23;6.90;;;6.30;99.60;;;;;;5052584;28;20029;-64
2023/12/17 02:24:59;;;;;;;11.40;7.30;;;6.30;99.60;;;;;;5051817;28;20102;-64
2023/12/17 02:27:26;;;;;;;12.52;7.85;;;6.30;99.50;;;;;;5052244;28;20363;-64
2023/12/17 02:29:53;;;;;;;11.32;8.00;;;6.30;99.40;;;;;;5052271;28;20377;-64
2023/12/17 02:32:21;;;;;;;12.07;7.68;;;6.30;99.40;;;;;;5052357;28;20032;-64
2023/12/17 02:34:47;;;;;;;12.30;6.90;;;6.20;99.30;;;;;;5052175;28;20389;-63
2023/12/17 02:37:13;;;;;;;11.95;7.78;;;6.20;99.40;;;;;;5051469;28;20489;-64
2023/12/17 02:39:39;;;;;;;11.10;7.57;;;6.20;99.30;;;;;;5052655;28;20041;-64
2023/12/17 02:42:04;;;;;;;12.60;7.15;;;6.20;99.30;;;;;;5051641;28;20470;-64
2023/12/17 02:44:30;;;;;;;11.85;7.63;;;6.20;99.30;;;;;;5050845;28;20121;-64
2023/12/17 02:46:56;;;;;;;10.32;7.43;;;6.20;99.40;;;;;;5051580;28;20088;-63
2023/12/17 02:49:22;;;;;;;9.57;7.32;;;6.20;99.30;;;;;;5051713;28;20024;-64
2023/12/17 02:51:47;;;;;;;10.25;6.68;;;6.20;99.30;;;;;;5051825;28;20029;-63
2023/12/17 02:54:13;;;;;;;10.90;7.35;;;6.10;99.30;;;;;;5051733;28;20024;-64
2023/12/17 02:56:39;;;;;;;11.63;6.80;;;6.10;99.30;;;;;;5051910;28;20446;-64
2023/12/17 02:59:09;;;;;;;9.65;6.25;;;6.10;99.40;;;;;;5051378;28;20131;-64
2023/12/17 03:01:35;;;;;;;11.20;6.70;;;6.10;99.40;;;;;;5051747;28;20029;-64
2023/12/17 03:04:03;;;;;;;11.32;7.55;;;6.10;99.40;;;;;;5051679;28;20136;-64
2023/12/17 03:06:28;;;;;;;11.82;7.10;;;6.10;99.40;;;;;;5051930;28;20132;-63
2023/12/17 03:08:54;;;;;;;11.38;6.97;;;6.10;99.50;;;;;;5051965;28;20048;-64
2023/12/17 03:11:20;;;;;;;11.50;6.57;;;6.10;99.40;;;;;;5051822;28;20531;-63
2023/12/17 03:13:45;;;;;;;10.88;6.55;;;6.10;99.40;;;;;;5051542;28;20104;-64
2023/12/17 03:16:11;;;;;;;10.55;7.32;;;6.10;99.40;;;;;;5051537;28;20033;-64
2023/12/17 03:18:36;;;;;;;12.45;7.15;;;6.10;99.50;;;;;;5051897;28;20033;-64
2023/12/17 03:21:07;;;;;;;10.68;7.18;;;6.10;99.50;;;;;;5051091;28;20035;-66
2023/12/17 03:23:33;;;;;;;11.60;7.18;;;6.00;99.50;;;;;;5051987;28;20033;-64
2023/12/17 03:25:59;;;;;;;10.68;7.40;;;6.10;99.40;;;;;;5051698;28;20044;-64
2023/12/17 03:28:24;;;;;;;11.75;7.90;;;6.10;99.40;;;;;;5051466;28;20025;-64
2023/12/17 03:30:50;;;;;;;10.00;6.88;;;6.00;99.40;;;;;;5051835;28;20485;-64
2023/12/17 03:33:15;;;;;;;10.93;7.38;;;6.10;99.40;;;;;;5051515;28;20025;-64
2023/12/17 03:35:41;;;;;;;10.68;6.78;;;6.10;99.40;;;;;;5051744;28;20028;-64
2023/12/17 03:38:07;;;;;;;9.90;6.32;;;6.10;99.30;;;;;;5050008;28;20025;-64
2023/12/17 03:40:33;;;;;;;13.27;7.63;;;6.10;99.30;;;;;;5051359;28;20458;-64
2023/12/17 03:43:00;;;;;;;9.30;6.65;;;6.00;99.20;;;;;;5050295;28;20029;-64
2023/12/17 03:45:25;;;;;;;9.40;6.30;;;6.00;99.10;;;;;;5051154;28;20163;-64
2023/12/17 03:47:51;;;;;;;9.30;6.35;;;6.10;99.00;;;;;;5062703;28;20465;-64
2023/12/17 03:50:19;;;;;;;9.90;6.57;;;6.00;99.00;;;;;;5073344;28;20366;-63
2023/12/17 03:52:46;;;;;;;10.35;6.15;;;6.00;98.80;;;;;;5075185;28;20037;-63
2023/12/17 03:55:13;;;;;;;9.32;6.15;;;6.10;98.80;;;;;;5075106;28;20475;-64
2023/12/17 03:57:39;;;;;;;9.90;5.70;;;6.10;98.60;;;;;;5070739;28;20044;-64
2023/12/17 04:00:05;;;;;;;9.13;6.03;;;6.10;98.40;;;;;;5055404;28;20056;-63
2023/12/17 04:02:31;;;;;;;8.73;5.15;;;6.10;98.10;;;;;;5055552;28;20025;-63
2023/12/17 04:04:57;;;;;;;10.65;6.18;;;6.10;98.20;;;;;;5055043;28;20472;-64
2023/12/17 04:07:22;;;;;;;7.00;4.80;;;6.10;97.80;;;;;;5054783;28;20044;-64
2023/12/17 04:09:48;;;;;;;9.82;5.20;;;6.10;97.80;;;;;;5055121;28;20033;-64
2023/12/17 04:12:14;;;;;;;9.93;5.45;;;6.20;97.50;;;;;;5054630;28;20025;-65
2023/12/17 04:14:40;;;;;;;7.22;4.95;;;6.20;97.40;;;;;;5055129;28;20025;-63
2023/12/17 04:17:07;;;;;;;7.60;5.22;;;6.20;97.10;;;;;;5055385;28;20033;-63
2023/12/17 04:19:32;;;;;;;7.07;5.32;;;6.20;97.40;;;;;;5054954;28;20057;-63
2023/12/17 04:21:58;;;;;;;8.40;5.13;;;6.20;97.10;;;;;;5055005;28;20087;-63
2023/12/17 04:24:24;;;;;;;6.30;5.20;;;6.20;97.10;;;;;;5054507;28;20385;-63
2023/12/17 04:26:50;;;;;;;9.02;5.05;;;6.20;97.00;;;;;;5054874;28;20159;-64
2023/12/17 04:29:16;;;;;;;12.00;4.93;;;6.20;97.10;;;;;;5054439;28;20066;-63
2023/12/17 04:31:41;;;;;;;6.85;5.13;;;6.20;97.00;;;;;;5054757;28;20025;-63
2023/12/17 04:34:08;;;;;;;7.50;5.18;;;6.20;96.80;;;;;;5054481;28;20044;-64
2023/12/17 04:36:34;;;;;;;7.30;5.32;;;6.20;96.70;;;;;;5054598;28;20040;-63
2023/12/17 04:39:01;;;;;;;7.28;4.97;;;6.20;96.80;;;;;;5054512;28;20043;-64
2023/12/17 04:41:26;;;;;;;7.25;5.20;;;6.10;96.80;;;;;;5053907;28;20033;-64
2023/12/17 04:43:52;;;;;;;8.25;6.07;;;6.10;96.90;;;;;;5054463;28;20025;-64
2023/12/17 04:46:18;;;;;;;10.65;5.68;;;6.10;97.00;;;;;;5054099;28;20040;-64
2023/12/17 04:48:44;;;;;;;7.32;5.00;;;6.10;97.00;;;;;;5054658;28;20033;-64
2023/12/17 04:51:10;;;;;;;6.50;4.63;;;6.10;97.00;;;;;;5053841;28;20029;-67
2023/12/17 04:53:35;;;;;;;7.43;4.60;;;6.10;96.80;;;;;;5054288;28;20024;-64
2023/12/17 04:56:02;;;;;;;8.32;4.63;;;6.10;96.60;;;;;;5054222;28;20029;-64
2023/12/17 04:58:28;;;;;;;5.75;4.30;;;6.10;96.50;;;;;;5053586;28;20060;-64
2023/12/17 05:00:58;;;;;;;5.72;4.07;;;6.10;96.30;;;;;;5053571;28;20035;-64
2023/12/17 05:03:27;;;;;;;5.53;4.32;;;6.10;96.30;;;;;;5053810;28;20453;-64
2023/12/17 05:05:53;;;;;;;6.05;4.07;;;6.10;96.10;;;;;;5054051;28;20055;-64
2023/12/17 05:08:19;;;;;;;6.97;4.57;;;6.20;95.90;;;;;;5053823;28;20028;-64
2023/12/17 05:10:45;;;;;;;5.78;3.85;;;6.20;95.80;;;;;;5053780;28;20025;-64
2023/12/17 05:13:11;;;;;;;5.13;3.95;;;6.20;95.70;;;;;;5053923;28;20063;-67
2023/12/17 05:15:37;;;;;;;4.45;3.70;;;6.20;95.50;;;;;;5054275;28;20068;-63
2023/12/17 05:18:03;;;;;;;5.40;3.53;;;6.20;95.30;;;;;;5054043;28;20358;-64
2023/12/17 05:20:28;;;;;;;6.03;3.90;;;6.30;95.20;;;;;;5053171;28;20079;-64
2023/12/17 05:22:54;;;;;;;6.95;3.70;;;6.30;95.10;;;;;;5053871;28;20304;-63
2023/12/17 05:25:21;;;;;;;4.78;3.42;;;6.30;95.00;;;;;;5053046;28;20462;-64
2023/12/17 05:27:46;;;;;;;5.88;3.92;;;6.30;94.80;;;;;;5053810;28;20032;-63
2023/12/17 05:30:13;;;;;;;8.30;4.30;;;6.30;94.80;;;;;;5053590;28;20025;-63
2023/12/17 05:32:38;;;;;;;5.82;4.32;;;6.30;94.70;;;;;;5053580;28;20029;-64
2023/12/17 05:35:05;;;;;;;5.78;4.47;;;6.30;94.70;;;;;;5053229;28;20087;-63
2023/12/17 05:37:30;;;;;;;6.78;3.67;;;6.30;94.70;;;;;;5051767;28;20147;-64
2023/12/17 05:39:56;;;;;;;5.53;3.63;;;6.30;94.70;;;;;;5053442;28;20044;-64
2023/12/17 05:42:22;;;;;;;8.23;4.43;;;6.30;94.70;;;;;;5052735;28;20017;-64
2023/12/17 05:44:47;;;;;;;4.88;3.83;;;6.30;94.60;;;;;;5053130;28;20456;-64
2023/12/17 05:47:13;;;;;;;5.88;4.05;;;6.40;94.60;;;;;;5053577;28;20457;-63
2023/12/17 05:49:39;;;;;;;6.88;4.20;;;6.40;94.50;;;;;;5052897;28;20056;-63
2023/12/17 05:52:06;;;;;;;5.63;4.07;;;6.40;94.50;;;;;;5053236;28;20116;-63
2023/12/17 05:54:33;;;;;;;5.55;3.80;;;6.40;94.50;;;;;;5058072;28;20373;-63
2023/12/17 05:56:59;;;;;;;7.50;3.67;;;6.40;94.40;;;;;;5073113;28;20116;-64
2023/12/17 05:59:24;;;;;;;5.85;3.80;;;6.40;94.40;;;;;;5072155;28;20080;-64
2023/12/17 06:01:50;;;;;;;6.55;3.90;;;6.40;94.30;;;;;;5059238;28;20474;-65
2023/12/17 06:04:16;;;;;;;5.70;4.00;;;6.40;94.30;;;;;;5052841;28;20079;-67
2023/12/17 06:06:42;;;;;;;5.93;3.70;;;6.40;94.20;;;;;;5052507;28;20061;-64
2023/12/17 06:09:09;;;;;;;6.80;3.40;;;6.40;94.20;;;;;;5052946;28;20056;-64
2023/12/17 06:11:35;;;;;;;4.30;3.47;;;6.40;94.10;;;;;;5050500;28;20025;-64
2023/12/17 06:14:02;;;;;;;4.85;3.72;;;6.40;94.00;;;;;;5041462;28;20455;-64
2023/12/17 06:16:27;;;;;;;5.72;3.58;;;6.40;93.90;;;;;;5040469;28;20029;-65
2023/12/17 06:18:53;;;;;;;5.55;3.78;;;6.40;93.90;;;;;;5052618;28;20029;-65
2023/12/17 06:21:26;;;;;;;5.50;3.58;;;6.40;93.80;;;;;;5031848;28;20034;-63
2023/12/17 06:23:57;;;;;;;6.28;3.95;;;6.40;93.80;;;;;;5038973;28;20029;-65
2023/12/17 06:26:24;;;;;;;4.25;3.60;;;6.40;93.80;;;;;;5043614;28;20227;-64
2023/12/17 06:28:49;;;;;;;7.60;4.60;;;6.40;93.90;;;;;;5052279;28;20454;-64
2023/12/17 06:31:15;;;;;;;5.15;3.42;;;6.40;93.90;;;;;;5052217;28;20100;-65
2023/12/17 06:33:41;;;;;;;6.15;4.10;;;6.30;94.00;;;;;;5051585;28;20051;-65
2023/12/17 06:36:07;;;;;;;6.63;4.13;;;6.30;94.00;;;;;;5051924;28;20386;-64
2023/12/17 06:38:32;;;;;;;7.07;4.10;;;6.30;94.00;;;;;;5048135;28;20087;-64
2023/12/17 06:40:58;;;;;;;6.57;3.83;;;6.30;94.00;;;;;;5043233;28;20033;-65
2023/12/17 06:43:24;;;;;;;5.00;3.50;;;6.30;94.10;;;;;;5045033;28;20115;-63
2023/12/17 06:45:50;;;;;;;4.82;3.80;;;6.30;94.10;;;;;;5051870;28;20028;-65
2023/12/17 06:48:16;;;;;;;5.80;3.47;;;6.20;94.10;;;;;;5045738;28;20106;-63
2023/12/17 06:50:41;;;;;;;6.43;3.65;;;6.20;94.20;;;;;;5040473;28;20025;-64
2023/12/17 06:53:07;;;;;;;4.85;3.72;;;6.20;94.20;;;;;;5032035;28;20029;-65
2023/12/17 06:55:32;;;;;;;5.53;3.40;;;6.20;94.20;;;;;;5031772;28;20076;-65
2023/12/17 06:57:58;;;;;;;5.80;4.03;;;6.20;94.20;;;;;;5031943;28;20108;-64
2023/12/17 07:00:24;;;;;;;6.35;4.18;;;6.20;94.20;;;;;;5046061;28;20049;-64
2023/12/17 07:02:50;;;;;;;4.65;3.90;;;6.20;94.20;;;;;;5051731;28;20025;-65
2023/12/17 07:05:16;;;;;;;5.85;3.97;;;6.20;94.30;;;;;;5051762;28;20068;-64
2023/12/17 07:07:47;;;;;;;7.13;3.83;;;6.20;94.30;;;;;;5051665;28;20028;-65
2023/12/17 07:10:12;;;;;;;6.03;4.47;;;6.20;94.40;;;;;;5052156;28;20062;-64
2023/12/17 07:12:38;;;;;;;6.90;4.07;;;6.20;94.40;;;;;;5051369;28;20037;-65
2023/12/17 07:15:04;;;;;;;7.60;4.28;;;6.20;94.50;;;;;;5051945;28;20039;-65
2023/12/17 07:17:30;;;;;;;6.95;3.63;;;6.20;94.40;;;;;;5051220;28;20060;-63
2023/12/17 07:19:55;;;;;;;6.25;3.78;;;6.20;94.40;;;;;;5050403;28;20478;-63
2023/12/17 07:22:22;;;;;;;8.05;3.90;;;6.20;94.20;;;;;;5051311;28;20115;-67
2023/12/17 07:24:49;;;;;;;6.07;3.17;;;6.20;93.90;;;;;;5054985;28;20389;-64
2023/12/17 07:27:15;;;;;;;3.97;3.38;;;6.20;93.80;;;;;;5050494;28;20079;-65
2023/12/17 07:29:40;;;;;;;7.07;4.07;;;6.20;93.60;;;;;;5044070;28;20077;-65
2023/12/17 07:32:06;;;;;;;5.78;3.28;;;6.20;93.40;;;;;;5034377;28;20057;-64
2023/12/17 07:34:32;;;;;;;5.55;3.33;;;6.20;93.20;;;;;;5035352;28;20037;-64
2023/12/17 07:36:59;;;;;;;5.85;3.75;;;6.20;93.20;;;;;;5035868;28;20168;-64
2023/12/17 07:39:25;;;;;;;7.50;3.55;;;6.20;93.10;;;;;;5046023;28;20040;-64
2023/12/17 07:41:51;;;;;;;4.45;3.40;;;6.20;93.20;;;;;;5035860;28;20041;-64
2023/12/17 07:44:16;;;;;;;7.28;3.75;;;6.20;93.10;;;;;;5035321;28;20502;-64
2023/12/17 07:46:42;;;;;;;7.90;3.92;;;6.20;93.20;;;;;;5058864;28;20040;-62
2023/12/17 07:49:07;;;;;;;5.80;3.60;;;6.20;93.20;;;;;;5052420;28;20028;-63
2023/12/17 07:51:33;;;;;;;5.57;3.75;;;6.20;93.40;;;;;;5044466;28;20465;-63
2023/12/17 07:53:59;;;;;;;4.57;3.55;;;6.30;93.50;;;;;;5042156;28;20102;-64
2023/12/17 07:56:24;;;;;;;4.00;3.10;;;6.30;93.50;;;;;;5049359;28;20126;-67
2023/12/17 07:58:50;;;;;;;5.38;2.88;;;6.30;93.70;;;;;;5043968;28;20059;-63
2023/12/17 08:01:16;;;;;;;5.07;3.67;;;6.40;93.40;;;;;;5035356;28;20117;-64
2023/12/17 08:03:41;;;;;;;6.15;3.75;;;6.40;93.20;;;;;;5034613;28;20030;-65
2023/12/17 08:06:07;;;;;;;4.85;3.28;;;6.50;93.20;;;;;;5035648;28;20037;-64
2023/12/17 08:08:33;;;;;;;5.47;3.15;;;6.50;93.10;;;;;;5046910;28;20061;-64
2023/12/17 08:10:58;;;;;;;4.32;2.70;;;6.60;93.00;;;;;;5035993;28;20394;-63
2023/12/17 08:13:24;;;;;;;3.25;2.05;;;6.60;92.70;;;;;;5034585;28;20032;-63
2023/12/17 08:15:50;;;;;;;3.95;2.38;;;6.70;92.30;;;;;;5034961;28;20033;-64
2023/12/17 08:18:15;;;;;;;3.47;2.00;;;6.80;92.00;;;;;;5044350;28;20060;-63
2023/12/17 08:20:41;;;;;;;2.80;2.13;;;6.90;91.60;;;;;;5054298;28;20025;-64
2023/12/17 08:23:07;;;;;;;3.25;2.00;;;7.00;91.30;;;;;;5054791;28;20431;-65
2023/12/17 08:25:38;;;;;;;3.85;1.70;;;7.00;91.10;;;;;;5054474;28;20028;-64
2023/12/17 08:28:05;;;;;;;1.92;1.70;;;7.10;90.80;;;;;;5047944;28;20533;-64
2023/12/17 08:30:30;;;;;;;3.42;2.10;;;7.20;90.60;;;;;;5054099;28;20044;-65
2023/12/17 08:32:56;;;;;;;5.43;2.00;;;7.20;90.40;;;;;;5054777;28;20025;-64
2023/12/17 08:35:22;;;;;;;5.50;2.35;;;7.30;90.30;;;;;;5054029;28;20473;-63
2023/12/17 08:37:48;;;;;;;4.07;2.75;;;7.30;90.20;;;;;;5054248;28;20040;-63
2023/12/17 08:40:14;;;;;;;2.72;1.98;;;7.40;90.10;;;;;;5051191;28;20021;-63
2023/12/17 08:42:40;;;;;;;3.20;2.50;;;7.40;90.00;;;;;;5042970;28;20025;-64
2023/12/17 08:45:06;;;;;;;3.15;1.95;;;7.40;90.10;;;;;;5034553;28;20041;-64
2023/12/17 08:47:32;;;;;;;3.45;2.20;;;7.50;90.00;;;;;;5034128;28;20032;-63
2023/12/17 08:49:59;;;;;;;3.08;2.40;;;7.50;90.10;;;;;;5034095;28;20411;-64
2023/12/17 08:52:26;;;;;;;2.75;2.05;;;7.50;90.10;;;;;;5034229;28;20029;-64
2023/12/17 08:54:52;;;;;;;3.90;1.90;;;7.50;90.00;;;;;;5033715;28;20030;-64
2023/12/17 08:57:17;;;;;;;3.90;2.20;;;7.60;89.90;;;;;;5034510;28;20022;-64
2023/12/17 08:59:44;;;;;;;4.10;2.30;;;7.60;89.50;;;;;;5037235;28;20457;-64
2023/12/17 09:02:09;;;;;;;2.95;2.10;;;7.60;89.40;;;;;;5049681;28;20032;-65
2023/12/17 09:04:35;;;;;;;3.45;2.00;;;7.60;89.50;;;;;;5053653;28;20052;-64
2023/12/17 09:07:00;;;;;;;3.30;2.30;;;7.70;89.50;;;;;;5054138;28;20075;-63
2023/12/17 09:09:26;;;;;;;2.97;2.10;;;7.70;89.30;;;;;;5047672;28;20048;-64
2023/12/17 09:11:52;;;;;;;3.85;2.10;;;7.70;89.20;;;;;;5038886;28;20029;-64
2023/12/17 09:14:18;;;;;;;3.17;2.28;;;7.80;89.20;;;;;;5052877;28;20432;-64
2023/12/17 09:16:44;;;;;;;3.70;2.17;;;7.80;89.20;;;;;;5053392;28;20466;-64
2023/12/17 09:19:09;;;;;;;3.17;2.42;;;7.80;89.10;;;;;;5053562;28;20104;-64
2023/12/17 09:21:35;;;;;;;4.40;2.63;;;7.90;89.00;;;;;;5053532;28;20055;-64
2023/12/17 09:24:00;;;;;;;4.97;2.85;;;7.90;88.50;;;;;;5053736;28;20386;-63
2023/12/17 09:26:26;;;;;;;5.32;2.70;;;7.90;88.10;;;;;;5053613;28;20124;-64
2023/12/17 09:28:52;;;;;;;3.83;2.53;;;8.00;87.90;;;;;;5048660;28;20021;-64
2023/12/17 09:31:17;;;;;;;4.30;2.42;;;8.00;87.50;;;;;;5053771;28;20048;-65
2023/12/17 09:33:43;;;;;;;4.07;2.08;;;8.00;87.50;;;;;;5052796;28;20116;-64
2023/12/17 09:36:09;;;;;;;3.92;2.28;;;8.10;87.30;;;;;;5052531;28;20037;-64
2023/12/17 09:38:34;;;;;;;2.92;1.80;;;8.10;86.60;;;;;;5051265;28;20025;-65
2023/12/17 09:41:00;;;;;;;3.63;2.03;;;8.20;86.30;;;;;;5053043;28;20040;-64
2023/12/17 09:43:26;;;;;;;2.25;1.85;;;8.20;85.90;;;;;;5052619;28;20028;-64
2023/12/17 09:45:52;;;;;;;3.33;2.08;;;8.30;85.80;;;;;;5052464;28;20028;-64
2023/12/17 09:48:20;;;;;;;4.13;2.15;;;8.40;86.00;;;;;;5052772;28;20029;-64
2023/12/17 09:50:46;;;;;;;2.90;1.98;;;8.40;85.70;;;;;;5047554;28;20017;-64
2023/12/17 09:53:12;;;;;;;3.42;2.10;;;8.50;85.70;;;;;;5052937;28;20032;-66
2023/12/17 09:55:38;;;;;;;2.55;1.58;;;8.60;85.40;;;;;;5069984;28;20028;-64
2023/12/17 09:58:04;;;;;;;2.58;1.70;;;8.60;85.10;;;;;;5072774;28;20429;-65
2023/12/17 10:00:33;;;;;;;3.40;1.70;;;8.80;85.00;;;;;;5072959;28;20036;-64
2023/12/17 10:03:05;;;;;;;2.60;1.83;;;8.90;84.60;;;;;;5072568;28;20052;-64
2023/12/17 10:05:31;;;;;;;4.13;1.58;;;9.10;83.80;;;;;;5065785;28;20033;-64
2023/12/17 10:07:58;;;;;;;3.80;1.40;;;9.30;83.10;;;;;;5052418;28;20021;-64
2023/12/17 10:10:24;;;;;;;2.00;1.60;;;9.50;81.50;;;;;;5052952;28;20047;-64
2023/12/17 10:12:50;;;;;;;7.82;1.60;;;9.70;81.20;;;;;;5052419;28;20381;-64
2023/12/17 10:15:17;;;;;;;4.72;1.60;;;9.90;78.50;;;;;;5045025;28;20059;-64
2023/12/17 10:17:43;;;;;;;2.60;1.42;;;10.10;77.90;;;;;;5052304;28;20078;-65
2023/12/17 10:20:09;;;;;;;3.17;1.55;;;10.30;76.50;;;;;;5052428;28;20116;-64
2023/12/17 10:22:34;;;;;;;2.42;1.42;;;10.50;75.80;;;;;;5052669;28;20040;-64
2023/12/17 10:25:00;;;;;;;1.98;1.30;;;10.70;74.20;;;;;;5038281;28;20034;-65
2023/12/17 10:27:27;;;;;;;2.00;1.52;;;10.80;73.10;;;;;;5034767;28;20528;-64
2023/12/17 10:29:53;;;;;;;1.77;1.30;;;11.00;73.30;;;;;;5044508;28;20056;-64
2023/12/17 10:32:23;;;;;;;2.60;1.38;;;11.10;71.30;;;;;;5038765;28;20036;-64
2023/12/17 10:34:50;;;;;;;1.73;1.23;;;11.20;69.80;;;;;;5051736;28;20548;-64
2023/12/17 10:37:21;;;;;;;1.52;1.20;;;11.30;69.40;;;;;;5052275;28;20025;-63
2023/12/17 10:39:51;;;;;;;1.53;1.10;;;11.40;69.00;;;;;;5044769;28;20025;-64
2023/12/17 10:42:18;;;;;;;1.93;1.20;;;11.50;68.30;;;;;;5047514;28;20025;-64
2023/12/17 10:44:47;;;;;;;1.88;1.25;;;11.60;68.20;;;;;;5031903;28;20305;-65
2023/12/17 10:47:16;;;;;;;1.65;1.38;;;11.70;67.80;;;;;;5035045;28;20030;-65
2023/12/17 10:49:43;;;;;;;2.75;1.40;;;11.70;66.80;;;;;;5040556;28;20022;-65
2023/12/17 10:52:09;;;;;;;2.97;1.60;;;11.80;66.30;;;;;;5032259;28;20454;-64
2023/12/17 10:54:35;;;;;;;1.80;1.10;;;11.80;66.10;;;;;;5032520;28;20026;-63
2023/12/17 10:57:02;;;;;;;1.92;1.38;;;11.90;66.50;;;;;;5033052;28;20525;-64
2023/12/17 10:59:31;;;;;;;2.05;1.30;;;12.00;65.60;;;;;;5046453;28;20041;-64
2023/12/17 11:01:59;;;;;;;1.50;0.98;;;12.00;64.20;;;;;;5049248;28;20036;-65
2023/12/17 11:04:25;;;;;;;2.03;1.10;;;12.10;63.00;;;;;;5032252;28;20083;-65
2023/12/17 11:06:52;;;;;;;1.00;0.90;;;12.10;62.10;;;;;;5044297;28;20068;-65
2023/12/17 11:09:18;;;;;;;1.20;0.90;;;12.20;61.50;;;;;;5038556;28;20021;-64
2023/12/17 11:11:47;;;;;;;1.27;0.80;;;12.20;60.60;;;;;;5035413;28;20100;-65
2023/12/17 11:14:13;;;;;;;0.70;0.60;;;12.20;59.50;;;;;;5051696;28;20120;-64
2023/12/17 11:16:39;;;;;;;1.83;1.13;;;12.20;58.50;;;;;;5046403;28;20108;-65
2023/12/17 11:19:05;;;;;;;1.95;1.27;;;12.20;58.20;;;;;;5033794;28;20040;-65
2023/12/17 11:21:32;;;;;;;2.58;0.98;;;12.20;58.00;;;;;;5045819;28;20021;-64
2023/12/17 11:23:59;;;;;;;1.58;1.00;;;12.20;57.70;;;;;;5040924;28;20022;-65
2023/12/17 11:26:24;;;;;;;1.40;1.08;;;12.30;57.80;;;;;;5031504;28;20034;-65
2023/12/17 11:28:50;;;;;;;2.08;1.20;;;12.30;57.40;;;;;;5031187;28;20163;-65
2023/12/17 11:31:16;;;;;;;2.35;1.38;;;12.30;57.10;;;;;;5040907;28;20029;-65
2023/12/17 11:33:42;;;;;;;1.30;0.80;;;12.30;56.90;;;;;;5035271;28;20024;-65
2023/12/17 11:36:10;;;;;;;1.80;1.08;;;12.40;56.80;;;;;;5043458;28;20087;-64
2023/12/17 11:38:36;;;;;;;2.20;1.05;;;12.40;56.50;;;;;;5051351;28;20531;-65
2023/12/17 11:41:03;;;;;;;2.55;1.10;;;12.40;56.60;;;;;;5051361;28;20519;-65
2023/12/17 11:43:30;;;;;;;1.67;1.02;;;12.50;56.40;;;;;;5050398;28;20082;-64
2023/12/17 11:45:56;;;;;;;2.67;1.48;;;12.50;56.50;;;;;;5050953;28;20060;-65
2023/12/17 11:48:22;;;;;;;2.15;1.13;;;12.60;56.50;;;;;;5051599;28;20033;-65
2023/12/17 11:50:54;;;;;;;1.83;1.25;;;12.60;56.30;;;;;;5039246;28;20020;-65
2023/12/17 11:53:20;;;;;;;3.45;1.25;;;12.60;54.80;;;;;;5031447;28;20378;-65
2023/12/17 11:55:51;;;;;;;1.73;1.20;;;12.70;54.50;;;;;;5030941;28;20484;-65
2023/12/17 11:58:19;;;;;;;4.05;1.00;;;12.70;54.60;;;;;;5045605;28;20083;-64
2023/12/17 12:01:04;;;;;;;2.55;1.30;;;12.70;54.80;;;;;;5052076;28;20052;-66
2023/12/17 12:03:30;;;;;;;2.45;1.08;;;12.80;55.50;;;;;;5031586;28;20053;-64
2023/12/17 12:06:03;;;;;;;2.50;1.27;;;12.80;55.20;;;;;;5034776;28;20045;-65
2023/12/17 12:08:46;;;;;;;1.65;1.02;;;12.90;54.60;;;;;;5039303;28;20500;-64
2023/12/17 12:11:21;;;;;;;3.13;1.30;;;12.90;53.40;;;;;;5039913;28;20025;-64
2023/12/17 12:13:50;;;;;;;1.75;1.27;;;13.00;53.40;;;;;;5054423;28;20024;-64
2023/12/17 12:16:17;;;;;;;1.00;0.90;;;13.00;52.80;;;;;;5055091;28;20032;-64
2023/12/17 12:18:43;;;;;;;1.70;1.10;;;13.00;52.90;;;;;;5055206;28;20056;-66
2023/12/17 12:21:16;;;;;;;4.45;2.00;;;13.00;52.60;;;;;;5054893;28;20503;-67
2023/12/17 12:23:54;;;;;;;2.47;1.13;;;13.00;52.60;;;;;;5054756;28;20044;-65
2023/12/17 12:26:20;;;;;;;2.22;0.93;;;13.10;52.10;;;;;;5054906;28;20132;-65
2023/12/17 12:28:50;;;;;;;1.60;1.30;;;13.10;52.40;;;;;;5054565;28;20021;-65
2023/12/17 12:31:16;;;;;;;1.88;1.10;;;13.10;52.00;;;;;;5051633;28;20163;-65
2023/12/17 12:33:55;;;;;;;2.38;1.40;;;13.10;52.10;;;;;;5035167;28;20026;-65
2023/12/17 12:36:22;;;;;;;5.97;1.85;;;13.20;50.80;;;;;;5034986;28;20034;-65
2023/12/17 12:39:04;;;;;;;3.92;2.20;;;13.20;50.90;;;;;;5048465;28;20344;-70
2023/12/17 12:41:31;;;;;;;3.38;2.30;;;13.20;52.20;;;;;;5051582;28;20074;-65
2023/12/17 12:43:58;;;;;;;5.20;3.40;;;13.20;52.60;;;;;;5053902;28;20025;-65
2023/12/17 12:46:24;;;;;;;4.43;2.88;;;13.30;53.80;;;;;;5053857;28;20037;-66
2023/12/17 12:48:57;;;;;;;5.85;3.15;;;13.40;55.60;;;;;;5051356;28;20072;-66